Date,TemperatureHighF,TemperatureAvgF,TemperatureLowF,DewpointHighF,DewpointAvgF,DewpointLowF,HumidityHigh,HumidityAvg,HumidityLow,PressureMaxIn,PressureMinIn,WindSpeedMaxMPH,WindSpeedAvgMPH,GustSpeedMaxMPH,PrecipitationSumIn
2014-1-1,67.3,49.3,33.4,51.5,40.9,29.7,93,74,54,30.22,29.88,0,0,0,0.00
2014-1-2,47.1,37.3,28.5,35.0,24.4,21.0,75,60,42,30.45,30.09,0,0,0,0.00
2014-1-3,54.3,40.1,29.3,30.1,26.3,22.4,76,59,35,30.45,30.06,0,0,0,0.00
2014-1-4,68.8,52.4,38.0,52.8,44.0,29.4,87,74,55,30.06,29.73,0,0,0,0.00
2014-1-5,60.1,41.2,25.3,56.5,30.7,14.4,89,67,46,30.49,29.71,0,0,0,0.00
2014-1-6,34.6,24.4,17.6,14.3,10.2,6.6,71,55,36,30.73,30.50,0,0,0,0.02
2014-1-7,49.4,33.5,21.1,21.2,16.8,11.8,77,53,27,30.59,30.31,0,0,0,0.00
2014-1-8,48.0,43.2,38.1,41.1,32.1,19.7,80,65,47,30.31,30.12,0,0,0,0.00
2014-1-9,46.5,42.7,38.9,45.7,41.3,37.3,97,95,84,30.21,30.01,0,0,0,0.26
2014-1-10,62.2,57.2,46.7,61.2,56.4,45.9,97,97,96,30.00,29.64,0,0,0,1.13
2014-1-11,66.6,51.3,42.4,52.5,43.5,37.3,98,78,38,30.07,29.79,0,0,0,0.07
2014-1-12,72.6,55.4,40.2,52.8,39.6,35.6,87,60,28,30.05,29.77,0,0,0,0.00
2014-1-13,68.9,59.2,45.4,57.7,42.5,31.0,90,57,28,30.05,29.74,0,0,0,0.00
2014-1-14,70.1,51.8,37.5,41.5,33.4,27.9,76,53,24,30.28,29.98,0,0,0,0.00
2014-1-15,57.9,45.2,36.1,32.3,27.8,24.1,66,52,31,30.37,30.09,0,0,0,0.00
2014-1-16,41.3,40.8,40.0,30.2,29.0,28.3,65,63,61,30.09,30.02,0,0,0,0.00
2014-1-30,55.2,48.9,33.2,44.3,37.6,20.0,79,65,52,30.09,29.86,0,0,0,0.01
2014-1-31,76.8,61.4,50.5,57.4,53.1,44.2,88,76,51,29.89,29.75,0,0,0,0.00
2014-2-1,64.2,55.9,41.5,62.7,53.2,38.5,95,91,85,29.98,29.73,0,0,0,0.25
2014-2-2,41.4,35.9,32.6,38.7,34.1,30.3,95,93,90,30.24,29.97,0,0,0,0.37
2014-2-3,46.3,37.9,32.6,40.0,34.9,30.3,93,89,77,30.27,30.00,0,0,0,0.00
2014-2-4,43.1,40.4,37.9,42.0,38.9,36.3,96,94,91,30.08,29.86,0,0,0,0.34
2014-2-5,39.7,33.8,27.0,38.7,27.8,19.2,97,79,64,30.49,30.08,0,0,0,0.00
2014-2-6,31.5,26.7,21.2,24.3,20.0,14.6,82,76,66,30.57,30.40,0,0,0,0.00
2014-2-7,37.1,31.9,28.0,31.2,26.9,22.9,91,82,67,30.40,30.24,0,0,0,0.00
2014-2-8,49.9,38.9,33.0,44.6,36.4,30.7,95,91,80,30.24,30.02,0,0,0,0.05
2014-2-9,48.4,43.0,35.2,45.2,40.8,33.4,95,92,88,30.12,30.01,0,0,0,0.00
2014-2-10,41.7,37.5,35.5,39.5,34.3,29.3,94,88,76,30.27,30.10,0,0,0,0.00
2014-2-11,36.2,33.6,30.7,30.3,28.1,26.5,91,80,68,30.33,30.19,0,0,0,0.10
2014-2-12,57.5,39.9,30.3,39.2,31.0,27.0,93,74,37,30.21,30.03,0,0,0,0.04
2014-2-13,68.1,46.3,29.5,43.2,36.1,26.5,92,71,39,30.06,29.87,0,0,0,0.00
2014-2-14,77.5,56.5,45.1,50.1,41.0,32.4,89,60,27,30.07,29.73,0,0,0,0.00
2014-2-15,74.2,53.2,35.9,40.0,35.4,30.7,86,55,24,30.16,29.99,0,0,0,0.00
2014-2-16,79.2,60.6,43.0,60.5,50.6,36.4,85,71,50,30.06,29.87,0,0,0,0.00
2014-2-17,83.8,67.5,51.2,62.7,48.7,35.2,91,57,20,30.10,29.84,0,0,0,0.00
2014-2-18,82.7,62.6,46.3,62.7,50.7,37.1,87,66,48,30.08,29.82,0,0,0,0.00
2014-2-19,74.9,66.5,59.3,64.1,60.6,56.7,94,82,67,29.91,29.65,0,0,0,0.00
2014-2-20,80.3,66.5,50.2,65.6,50.9,34.7,86,61,23,30.07,29.61,0,0,0,0.00
2014-2-21,74.7,54.1,36.1,39.1,30.7,20.3,80,47,14,30.16,29.99,0,0,0,0.00
2014-2-22,82.1,61.0,48.5,47.0,38.8,30.3,72,48,18,30.01,29.80,16,1,18,0.21
2014-2-23,74.9,60.4,47.9,61.4,51.9,42.2,92,74,52,30.08,29.84,12,4,15,0.00
2014-2-24,56.7,50.6,45.5,45.8,42.5,38.8,84,74,62,30.16,30.01,11,2,12,0.00
2014-2-25,52.0,49.0,42.1,46.0,42.9,38.1,89,79,69,30.12,29.99,15,2,15,0.24
2014-2-26,43.7,37.8,30.3,38.7,26.8,22.7,89,65,45,30.27,30.10,17,6,21,0.04
2014-2-27,55.2,39.9,23.9,36.1,26.5,20.1,90,62,32,30.16,29.89,10,1,11,0.00
2014-2-28,70.1,54.3,41.5,54.2,45.2,32.1,95,73,45,29.88,29.69,21,6,23,0.00
2014-3-1,80.2,64.8,53.9,63.6,59.1,52.5,97,83,55,29.96,29.84,18,3,18,0.00
2014-3-2,69.6,38.8,20.7,65.2,35.8,17.6,94,89,68,30.29,29.87,16,4,17,0.24
2014-3-3,27.5,22.5,17.5,24.7,18.9,13.2,89,86,81,30.46,30.29,0,0,0,0.00
2014-3-4,41.6,32.9,26.7,35.1,28.2,23.5,94,83,64,30.33,30.05,9,1,10,0.75
2014-3-5,49.1,40.6,30.3,39.0,34.6,28.5,95,80,62,30.14,30.00,11,2,14,0.28
2014-3-6,56.8,45.6,38.4,42.0,37.9,33.5,93,76,48,30.21,30.03,12,4,15,0.02
2014-3-7,64.4,50.4,33.7,43.6,39.1,32.4,96,69,39,30.04,29.85,15,5,21,0.00
2014-3-8,58.8,50.4,39.4,54.8,46.3,36.4,91,86,72,30.26,29.88,14,4,15,0.00
2014-3-9,57.3,44.5,38.4,49.1,41.4,36.3,95,89,72,30.32,30.17,10,2,12,0.00
2014-3-10,74.6,60.0,39.2,52.2,46.6,38.2,97,65,36,30.18,29.84,11,2,13,0.01
2014-3-11,77.6,64.2,55.5,59.5,55.7,51.5,93,76,48,29.84,29.49,18,5,21,0.00
2014-3-12,63.4,52.9,40.0,56.2,35.6,27.8,84,54,30,30.24,29.69,21,8,23,0.00
2014-3-13,67.4,50.8,32.0,38.1,33.4,28.7,89,56,27,30.31,30.05,15,2,15,0.00
2014-3-14,68.0,57.2,44.6,53.4,47.4,36.2,85,70,53,30.08,29.95,16,4,16,0.00
2014-3-15,66.1,60.1,54.1,61.8,56.8,50.5,96,89,76,29.97,29.65,15,3,20,0.73
2014-3-16,54.4,48.0,41.6,53.3,44.1,36.0,97,86,76,30.01,29.68,27,7,27,0.01
2014-3-17,60.2,46.5,38.0,43.7,37.2,32.4,86,71,40,30.00,29.74,15,3,17,0.00
2014-3-18,77.5,60.9,44.8,54.5,47.1,38.8,83,63,38,29.77,29.57,27,9,29,0.00
2014-3-19,65.6,55.5,46.0,55.6,40.0,34.5,86,57,37,30.18,29.79,13,4,15,0.00
2014-3-20,71.1,53.2,37.0,44.5,37.6,30.9,93,62,24,30.21,30.00,8,1,9,0.00
2014-3-21,79.0,62.2,43.9,59.4,50.5,36.6,88,67,44,30.00,29.77,21,4,22,0.00
2014-3-22,70.2,62.6,55.8,63.7,58.2,51.4,95,86,76,30.02,29.86,13,2,13,0.00
2014-3-23,57.8,51.7,43.5,51.6,46.4,40.8,94,83,62,30.31,30.02,12,4,17,0.03
2014-3-24,63.6,51.0,40.5,44.8,40.0,36.9,95,69,40,30.23,29.99,6,1,6,0.00
2014-3-25,62.4,51.2,42.7,43.6,36.3,30.1,89,60,32,30.36,30.11,12,3,13,0.00
2014-3-26,61.1,52.0,40.7,47.9,39.3,33.1,85,63,42,30.22,29.94,18,7,22,0.00
2014-3-27,69.4,62.8,54.9,65.6,59.0,47.5,94,87,75,29.94,29.66,18,9,21,0.00
2014-3-28,80.5,67.5,55.0,67.7,61.4,48.2,96,82,56,29.97,29.69,18,3,18,0.04
2014-3-29,72.2,58.3,47.6,49.9,44.6,36.3,87,64,30,30.23,29.97,14,4,15,0.00
2014-3-30,75.0,60.0,42.2,46.3,43.0,39.1,96,59,28,30.20,29.97,24,4,24,0.00
2014-3-31,75.9,64.9,54.8,60.8,54.2,45.0,83,69,53,29.98,29.82,18,7,23,0.00
2014-4-1,78.8,69.7,62.5,65.8,62.2,58.4,92,78,59,29.97,29.81,16,6,16,0.00
2014-4-2,80.3,73.5,68.5,70.8,66.9,64.4,90,80,68,29.86,29.69,18,9,21,0.00
2014-4-3,78.9,75.0,59.8,68.9,66.8,57.0,91,76,65,29.74,29.61,24,9,29,0.52
2014-4-4,65.1,56.2,47.9,62.6,43.0,38.3,94,63,38,30.14,29.73,20,5,20,0.20
2014-4-5,55.1,52.8,47.8,45.6,41.7,37.5,86,66,56,30.13,29.93,11,4,13,0.04
2014-4-6,52.1,49.9,47.4,50.4,47.0,44.5,95,90,80,29.94,29.71,13,3,15,1.26
2014-4-7,60.4,53.0,49.3,52.1,49.1,47.2,95,87,70,29.95,29.73,9,2,12,0.00
2014-4-8,68.6,57.1,47.1,50.8,44.8,37.1,89,67,33,30.14,29.90,22,4,22,0.00
2014-4-9,66.7,53.2,42.2,50.0,44.6,39.5,91,75,53,30.14,30.01,10,2,11,0.00
2014-4-10,81.2,70.0,59.1,59.0,53.9,47.4,76,58,39,30.00,29.83,24,9,26,0.00
2014-4-11,79.4,69.8,60.9,63.2,60.0,56.2,88,72,55,30.00,29.86,17,6,20,0.00
2014-4-12,80.2,71.9,63.9,64.8,61.7,58.8,84,71,55,29.94,29.75,22,8,26,0.00
2014-4-13,72.4,68.6,65.4,69.7,64.1,59.4,96,86,77,29.78,29.58,18,6,20,0.99
2014-4-14,70.6,51.7,45.3,67.8,46.0,36.0,95,81,65,30.20,29.61,21,7,23,0.13
2014-4-15,61.5,49.8,37.0,42.1,34.5,26.1,86,59,29,30.29,30.11,15,2,18,0.00
2014-4-16,65.7,53.2,40.4,43.1,39.1,35.0,91,61,38,30.16,29.94,20,5,20,0.00
2014-4-17,68.2,57.8,47.6,56.2,49.6,40.3,88,74,59,30.15,30.02,7,1,10,0.00
2014-4-18,74.8,63.0,52.8,56.3,52.2,49.4,89,70,43,30.20,30.07,7,0,9,0.00
2014-4-19,77.9,64.9,51.5,59.7,55.2,50.1,96,73,44,30.17,30.04,8,0,10,0.00
2014-4-20,78.4,67.3,57.7,64.4,59.5,55.1,94,78,50,30.11,29.97,12,1,15,0.03
2014-4-21,77.4,68.0,61.5,68.5,63.2,59.2,95,85,69,30.03,29.84,10,2,13,0.20
2014-4-22,80.6,68.3,57.9,67.6,61.9,56.8,97,82,49,30.01,29.86,6,0,7,0.01
2014-4-23,83.9,71.4,57.6,66.4,60.9,56.2,96,72,48,29.91,29.72,12,3,15,0.00
2014-4-24,83.6,72.4,63.4,69.9,61.9,51.8,88,71,39,29.89,29.71,16,4,23,0.00
2014-4-25,80.1,67.9,55.0,54.7,46.8,36.0,79,50,23,30.02,29.85,9,1,11,0.00
2014-4-26,83.6,71.8,60.8,70.5,61.3,45.8,85,70,54,29.87,29.62,18,5,20,0.00
2014-4-27,81.6,74.5,66.4,73.0,68.9,63.4,94,83,73,29.62,29.37,16,6,34,0.78
2014-4-28,81.5,71.0,63.5,69.8,58.4,49.0,95,68,33,29.63,29.44,7,1,22,0.01
2014-4-29,74.8,64.9,54.2,56.5,46.9,40.9,77,54,30,29.90,29.56,13,3,17,0.00
2014-4-30,66.4,55.5,46.3,46.8,43.0,39.0,86,65,40,30.11,29.90,16,3,20,0.00
2014-5-1,71.6,57.6,42.3,48.2,42.9,38.6,90,63,32,30.12,29.98,11,2,22,0.00
2014-5-2,78.6,62.7,45.9,53.4,45.9,36.5,93,60,23,30.01,29.87,11,1,13,0.00
2014-5-3,54.2,51.8,50.5,50.9,48.8,47.4,94,90,83,29.93,29.92,0,0,3,0.00
2014-5-19,74.4,73.2,72.7,64.8,64.1,63.6,76,73,71,29.93,29.91,9,4,14,0.00
2014-5-20,85.0,76.6,70.1,68.8,66.6,64.5,86,72,54,30.01,29.92,17,5,25,0.00
2014-5-21,85.3,75.9,67.7,69.6,66.7,64.6,92,74,53,30.07,29.92,11,3,14,0.00
2014-5-22,87.7,75.8,65.8,70.9,67.3,63.5,94,76,52,30.08,29.95,9,2,11,0.00
2014-5-23,86.8,75.2,68.1,70.6,67.5,65.2,93,79,53,30.07,29.94,10,1,10,0.00
2014-5-24,84.3,75.0,69.8,71.1,67.6,64.8,92,79,56,30.05,29.91,9,2,9,0.05
2014-5-25,87.7,77.4,69.3,71.6,68.3,64.3,92,75,51,30.01,29.90,10,2,16,0.00
2014-5-26,82.3,74.5,65.3,71.7,68.5,62.9,92,82,65,30.01,29.89,11,2,12,0.00
2014-5-27,78.8,70.8,65.6,68.4,66.1,63.5,95,86,64,29.94,29.80,10,1,10,0.27
2014-5-28,85.1,74.7,66.7,69.2,66.6,64.9,96,78,52,29.88,29.78,7,1,10,0.00
2014-5-29,87.0,75.4,66.9,72.1,68.4,64.7,95,80,56,29.84,29.73,5,0,6,0.00
2014-5-30,82.8,75.3,69.7,73.5,70.2,67.7,95,85,66,29.83,29.76,6,1,6,0.00
2014-5-31,83.3,76.3,72.0,74.5,71.5,70.0,94,85,70,29.90,29.81,6,1,10,0.20
2014-6-1,86.3,77.8,70.6,76.0,71.9,68.9,95,83,62,29.93,29.79,9,2,11,0.00
2014-6-2,88.9,80.3,74.3,75.0,72.7,70.8,90,78,60,29.98,29.83,11,2,15,0.00
2014-6-3,89.5,80.6,71.9,75.6,72.7,69.7,95,78,59,29.98,29.82,11,1,11,0.00
2014-6-4,88.9,80.7,73.4,75.0,72.6,70.9,93,77,61,29.85,29.73,14,3,14,0.00
2014-6-5,87.4,79.9,73.7,75.6,73.2,71.5,93,80,65,29.84,29.73,12,2,13,0.00
2014-6-6,88.9,80.9,74.2,75.6,73.4,71.7,93,79,61,29.93,29.76,10,2,14,1.20
2014-6-7,94.8,83.9,74.8,74.5,72.5,70.8,90,70,49,29.88,29.78,11,2,13,0.00
2014-6-8,88.8,81.4,76.3,76.3,73.5,71.5,88,78,59,29.92,29.72,12,2,13,0.00
2014-6-9,78.3,72.4,65.8,73.2,68.9,63.6,95,89,76,29.81,29.66,14,3,16,1.09
2014-6-10,84.7,73.6,62.9,66.8,64.3,61.2,95,75,49,29.79,29.68,10,2,15,0.13
2014-6-11,91.3,77.5,62.9,71.7,66.9,61.2,96,73,45,29.85,29.71,6,1,9,0.00
2014-6-12,83.8,77.5,71.9,75.1,71.4,69.0,93,82,73,29.95,29.69,13,3,16,0.01
2014-6-13,87.5,80.7,72.9,73.4,71.9,69.8,90,75,60,29.95,29.83,4,3,4,0.00
2014-6-14,88.0,84.0,71.3,76.0,73.6,68.9,92,72,65,29.90,29.77,13,4,14,0.00
2014-6-15,90.5,87.3,77.0,75.2,73.1,64.3,80,63,58,29.92,29.77,17,6,19,0.00
2014-6-16,91.1,89.8,85.0,76.9,74.3,73.2,73,61,58,30.01,29.89,11,7,13,0.00
2014-6-17,90.6,85.9,78.7,77.8,75.9,73.4,87,73,61,30.00,29.87,11,6,13,0.00
2014-6-18,91.1,86.2,77.7,77.8,76.2,74.2,89,73,60,29.97,29.87,10,2,12,0.00
2014-6-19,91.1,88.6,76.0,76.4,74.4,72.6,92,64,57,30.04,29.92,10,2,10,0.00
2014-6-20,93.3,89.9,79.8,76.6,73.6,71.7,84,59,50,30.06,29.94,6,2,6,0.00
2014-6-21,92.1,87.5,78.4,74.5,73.8,73.1,85,65,54,30.02,29.86,4,1,6,0.00
2014-6-22,87.3,83.2,78.8,74.8,74.3,66.2,86,75,65,29.93,29.80,5,0,5,0.00
2014-6-23,79.7,43.7,0.0,75.5,41.4,0.0,94,48,85,29.92,29.76,9,1,9,0.00
2014-6-24,83.4,52.5,0.0,75.6,47.5,0.0,78,49,78,30.01,29.91,0,0,3,0.00
2014-6-25,83.2,80.9,73.9,77.6,74.0,70.8,90,80,72,30.04,29.91,6,1,6,0.00
2014-6-26,81.4,76.5,73.9,72.3,72.2,72.1,94,87,74,30.00,29.85,5,5,5,0.00
2014-6-27,85.0,78.7,73.9,76.6,74.0,72.1,94,86,76,29.91,29.79,10,6,10,0.00
2014-6-28,85.0,85.0,85.0,76.6,76.6,76.6,76,76,76,29.92,29.83,6,6,6,0.00
2014-6-29,85.0,85.0,85.0,76.6,76.6,76.6,76,76,76,30.01,29.90,6,6,6,0.00
2014-6-30,85.0,85.0,85.0,76.6,76.6,76.6,76,76,76,29.97,29.83,6,6,6,0.00
2014-7-1,85.0,85.0,85.0,76.6,76.6,76.6,76,76,76,29.97,29.82,6,6,6,0.00
2014-7-2,85.0,85.0,85.0,76.6,76.6,76.6,76,76,76,30.05,29.93,6,6,6,0.00
2014-7-3,85.0,85.0,85.0,76.6,76.6,76.6,76,76,76,30.15,30.03,6,6,6,0.00
2014-7-4,85.0,85.0,85.0,76.6,76.6,76.6,76,76,76,30.20,30.11,6,6,6,0.00
2014-7-5,85.0,35.8,0.0,76.6,32.3,0.0,76,32,76,30.18,30.03,6,2,6,0.00
2014-7-6,0.0,0.0,0.0,0.0,0.0,0.0,0,0,100,30.05,29.95,0,0,0,0.00
2014-7-10,0.0,0.0,0.0,0.0,0.0,0.0,0,0,100,30.03,29.92,0,0,0,0.00
2014-7-11,0.0,0.0,0.0,0.0,0.0,0.0,0,0,100,30.11,30.01,0,0,0,0.00
2014-7-12,0.0,0.0,0.0,0.0,0.0,0.0,0,0,100,30.14,30.01,0,0,0,0.00
2014-7-13,0.0,0.0,0.0,0.0,0.0,0.0,0,0,100,30.07,29.92,0,0,0,0.00
2014-7-14,0.0,0.0,0.0,0.0,0.0,0.0,0,0,100,29.98,29.85,0,0,0,0.00
2014-7-15,0.0,0.0,0.0,0.0,0.0,0.0,0,0,100,30.02,29.90,0,0,0,0.00
2014-7-16,0.0,0.0,0.0,0.0,0.0,0.0,0,0,100,30.01,29.86,0,0,0,0.00
2014-7-17,0.0,0.0,0.0,0.0,0.0,0.0,0,0,100,29.95,29.85,0,0,0,0.00
2014-7-18,0.0,0.0,0.0,0.0,0.0,0.0,0,0,100,29.98,29.89,0,0,0,0.00
2014-7-19,0.0,0.0,0.0,0.0,0.0,0.0,0,0,100,30.02,29.96,0,0,0,0.00
2014-7-20,0.0,0.0,0.0,0.0,0.0,0.0,0,0,100,30.03,29.92,0,0,0,0.00
2014-7-21,0.0,0.0,0.0,0.0,0.0,0.0,0,0,100,30.04,29.94,0,0,0,0.00
2014-7-22,0.0,0.0,0.0,0.0,0.0,0.0,0,0,100,30.05,29.98,0,0,0,0.00
2014-7-23,0.0,0.0,0.0,0.0,0.0,0.0,0,0,100,30.08,29.93,0,0,0,1.20
2014-7-24,0.0,0.0,0.0,0.0,0.0,0.0,0,0,100,30.04,29.92,0,0,0,0.00
2014-7-25,0.0,0.0,0.0,0.0,0.0,0.0,0,0,100,30.00,29.90,0,0,0,0.00
2014-7-26,0.0,0.0,0.0,0.0,0.0,0.0,0,0,100,29.99,29.92,0,0,0,0.00
2014-7-29,0.0,0.0,0.0,0.0,0.0,0.0,0,0,100,30.06,30.01,0,0,0,0.00
2014-7-30,0.0,0.0,0.0,0.0,0.0,0.0,0,0,100,30.06,29.90,0,0,0,0.00
2014-7-31,0.0,0.0,0.0,0.0,0.0,0.0,0,0,100,29.96,29.90,0,0,0,0.00
2014-8-1,0.0,0.0,0.0,0.0,0.0,0.0,0,0,100,30.01,29.94,0,0,0,0.00
2014-8-2,0.0,0.0,0.0,0.0,0.0,0.0,0,0,100,30.06,29.97,0,0,0,0.00
2014-8-3,0.0,0.0,0.0,0.0,0.0,0.0,0,0,100,30.04,29.95,0,0,0,0.00
2014-8-4,0.0,0.0,0.0,0.0,0.0,0.0,0,0,100,30.04,29.95,0,0,0,0.00
2014-8-5,0.0,0.0,0.0,0.0,0.0,0.0,0,0,100,30.06,29.95,0,0,0,0.00
2014-8-6,0.0,0.0,0.0,0.0,0.0,0.0,0,0,100,30.01,29.88,0,0,0,0.00
2014-8-7,0.0,0.0,0.0,0.0,0.0,0.0,0,0,100,29.92,29.78,0,0,0,0.00
2014-8-8,0.0,0.0,0.0,0.0,0.0,0.0,0,0,100,29.92,29.82,0,0,0,0.00
2014-8-9,0.0,0.0,0.0,0.0,0.0,0.0,0,0,100,29.97,29.87,0,0,0,0.00
2014-8-10,0.0,0.0,0.0,0.0,0.0,0.0,0,0,100,30.00,29.89,0,0,0,0.00
2014-8-11,0.0,0.0,0.0,0.0,0.0,0.0,0,0,100,30.01,29.92,0,0,0,0.00
2014-8-12,0.0,0.0,0.0,0.0,0.0,0.0,0,0,100,30.03,29.95,0,0,0,0.00
2014-8-13,0.0,0.0,0.0,0.0,0.0,0.0,0,0,100,30.07,29.96,0,0,0,0.00
2014-8-14,0.0,0.0,0.0,0.0,0.0,0.0,0,0,100,30.05,29.93,0,0,0,0.00
2014-8-15,0.0,0.0,0.0,0.0,0.0,0.0,0,0,100,30.00,29.84,0,0,0,0.00
2014-8-16,0.0,0.0,0.0,0.0,0.0,0.0,0,0,100,29.93,29.83,0,0,0,0.00
2014-8-17,0.0,0.0,0.0,0.0,0.0,0.0,0,0,100,29.97,29.85,0,0,0,0.00
2014-8-18,0.0,0.0,0.0,0.0,0.0,0.0,0,0,100,29.93,29.81,0,0,0,0.00
2014-8-19,0.0,0.0,0.0,0.0,0.0,0.0,0,0,100,29.90,29.82,0,0,0,0.00
2014-8-24,0.0,0.0,0.0,0.0,0.0,0.0,0,0,100,29.94,29.83,0,0,0,0.00
2014-8-25,0.0,0.0,0.0,0.0,0.0,0.0,0,0,100,29.96,29.84,0,0,0,0.00
2014-8-26,0.0,0.0,0.0,0.0,0.0,0.0,0,0,100,30.02,29.91,0,0,0,0.00
2014-8-27,0.0,0.0,0.0,0.0,0.0,0.0,0,0,100,30.04,29.92,0,0,0,0.00
2014-8-28,0.0,0.0,0.0,0.0,0.0,0.0,0,0,100,29.95,29.80,0,0,0,0.00
2014-8-29,0.0,0.0,0.0,0.0,0.0,0.0,0,0,100,29.91,29.81,0,0,0,0.00
2014-8-30,0.0,0.0,0.0,0.0,0.0,0.0,0,0,100,29.95,29.84,0,0,0,0.00
2014-8-31,0.0,0.0,0.0,0.0,0.0,0.0,0,0,100,29.97,29.86,0,0,0,0.00
2014-9-1,0.0,0.0,0.0,0.0,0.0,0.0,0,0,100,29.93,29.83,0,0,0,0.00
2014-9-2,0.0,0.0,0.0,0.0,0.0,0.0,0,0,100,30.00,29.84,0,0,0,0.00
2014-9-3,0.0,0.0,0.0,0.0,0.0,0.0,0,0,100,29.99,29.89,0,0,0,0.00
2014-9-4,0.0,0.0,0.0,0.0,0.0,0.0,0,0,100,30.03,29.93,0,0,0,0.00
2014-9-5,0.0,0.0,0.0,0.0,0.0,0.0,0,0,100,30.08,29.93,0,0,0,0.00
2014-9-6,0.0,0.0,0.0,0.0,0.0,0.0,0,0,100,30.06,29.91,0,0,0,0.00
2014-9-7,0.0,0.0,0.0,0.0,0.0,0.0,0,0,100,30.06,29.93,0,0,0,0.00
2014-9-8,0.0,0.0,0.0,0.0,0.0,0.0,0,0,100,30.01,29.89,0,0,0,0.00
2014-9-9,0.0,0.0,0.0,0.0,0.0,0.0,0,0,100,29.96,29.79,0,0,0,0.00
2014-9-10,0.0,0.0,0.0,0.0,0.0,0.0,0,0,100,29.82,29.73,0,0,0,0.00
2014-9-11,0.0,0.0,0.0,0.0,0.0,0.0,0,0,100,29.98,29.80,0,0,0,0.00
2014-9-12,0.0,0.0,0.0,0.0,0.0,0.0,0,0,100,30.15,29.94,0,0,0,0.00
2014-9-13,0.0,0.0,0.0,0.0,0.0,0.0,0,0,100,30.23,30.13,0,0,0,0.00
2014-9-14,0.0,0.0,0.0,0.0,0.0,0.0,0,0,100,30.20,30.07,0,0,0,0.00
2014-9-15,0.0,0.0,0.0,0.0,0.0,0.0,0,0,100,30.12,30.04,0,0,0,0.00
2014-9-16,0.0,0.0,0.0,0.0,0.0,0.0,0,0,100,30.09,29.93,0,0,0,0.00
2014-9-17,0.0,0.0,0.0,0.0,0.0,0.0,0,0,100,29.97,29.96,0,0,0,0.00
2014-10-1,0.0,0.0,0.0,0.0,0.0,0.0,0,0,100,29.76,29.70,0,0,0,0.00
2014-10-2,0.0,0.0,0.0,0.0,0.0,0.0,0,0,100,29.82,29.61,0,0,0,0.00
2014-10-9,0.0,0.0,0.0,0.0,0.0,0.0,0,0,100,29.95,29.84,0,0,0,0.00
2014-10-10,0.0,0.0,0.0,0.0,0.0,0.0,0,0,100,29.92,29.78,0,0,0,0.00
2014-10-11,0.0,0.0,0.0,0.0,0.0,0.0,0,0,100,29.93,29.83,0,0,0,0.00
2014-10-13,0.0,0.0,0.0,0.0,0.0,0.0,0,0,100,29.86,29.64,0,0,0,0.00
2014-10-14,0.0,0.0,0.0,0.0,0.0,0.0,0,0,100,30.01,29.86,0,0,0,0.00
2014-10-15,0.0,0.0,0.0,0.0,0.0,0.0,0,0,100,30.06,29.93,0,0,0,0.00
2014-10-16,0.0,0.0,0.0,0.0,0.0,0.0,0,0,100,29.93,29.78,0,0,0,0.00
2014-10-17,0.0,0.0,0.0,0.0,0.0,0.0,0,0,100,29.93,29.79,0,0,0,0.00
2014-10-18,0.0,0.0,0.0,0.0,0.0,0.0,0,0,100,30.08,29.93,0,0,0,0.00
2014-10-19,0.0,0.0,0.0,0.0,0.0,0.0,0,0,100,30.15,30.02,0,0,0,0.00
2014-10-20,0.0,0.0,0.0,0.0,0.0,0.0,0,0,100,30.07,29.97,0,0,0,0.00
2014-10-21,0.0,0.0,0.0,0.0,0.0,0.0,0,0,100,30.09,29.98,0,0,0,0.00
2014-10-28,0.0,0.0,0.0,0.0,0.0,0.0,0,0,100,30.06,29.96,0,0,0,0.00
2014-10-29,0.0,0.0,0.0,0.0,0.0,0.0,0,0,100,30.18,30.06,0,0,0,0.00
2014-10-30,0.0,0.0,0.0,0.0,0.0,0.0,0,0,100,30.14,30.01,0,0,0,0.00
2014-10-31,0.0,0.0,0.0,0.0,0.0,0.0,0,0,100,30.31,30.09,0,0,0,0.00
2014-11-1,0.0,0.0,0.0,0.0,0.0,0.0,0,0,100,30.43,30.28,0,0,0,0.00
2014-11-2,0.0,0.0,0.0,0.0,0.0,0.0,0,0,100,30.35,30.19,0,0,0,0.00
2014-11-3,0.0,0.0,0.0,0.0,0.0,0.0,0,0,100,30.20,30.07,0,0,0,0.00
2014-11-4,0.0,0.0,0.0,0.0,0.0,0.0,0,0,100,30.17,30.04,0,0,0,0.00
2014-11-5,0.0,0.0,0.0,0.0,0.0,0.0,0,0,100,30.20,30.10,0,0,0,1.20
2014-11-6,0.0,0.0,0.0,0.0,0.0,0.0,0,0,100,30.29,30.19,0,0,0,0.00
2014-11-7,0.0,0.0,0.0,0.0,0.0,0.0,0,0,100,30.27,30.16,0,0,0,0.00
2014-11-12,0.0,0.0,0.0,0.0,0.0,0.0,0,0,100,30.41,30.39,0,0,0,0.00
2014-11-13,0.0,0.0,0.0,0.0,0.0,0.0,0,0,100,30.53,30.40,0,0,0,1.20
2014-11-14,0.0,0.0,0.0,0.0,0.0,0.0,0,0,100,30.45,30.27,0,0,0,0.00
2014-11-15,0.0,0.0,0.0,0.0,0.0,0.0,0,0,100,30.28,30.04,0,0,0,0.00
2014-11-16,0.0,0.0,0.0,0.0,0.0,0.0,0,0,100,30.06,30.01,0,0,0,0.00
2014-11-26,0.0,0.0,0.0,0.0,0.0,0.0,0,0,100,30.34,30.08,0,0,0,0.00
2014-11-27,0.0,0.0,0.0,0.0,0.0,0.0,0,0,100,30.50,30.33,0,0,0,0.00
2014-11-28,0.0,0.0,0.0,0.0,0.0,0.0,0,0,100,30.34,29.96,0,0,0,0.00
2014-11-29,0.0,0.0,0.0,0.0,0.0,0.0,0,0,100,29.97,29.84,0,0,0,0.00
2014-11-30,0.0,0.0,0.0,0.0,0.0,0.0,0,0,100,30.09,29.89,0,0,0,0.00
2014-12-1,0.0,0.0,0.0,0.0,0.0,0.0,0,0,100,30.40,30.08,0,0,0,0.00
2014-12-2,0.0,0.0,0.0,0.0,0.0,0.0,0,0,100,30.39,30.12,0,0,0,0.00
2014-12-3,0.0,0.0,0.0,0.0,0.0,0.0,0,0,100,30.20,30.11,0,0,0,0.00
2014-12-4,0.0,0.0,0.0,0.0,0.0,0.0,0,0,100,30.18,30.03,0,0,0,0.00
2014-12-5,0.0,0.0,0.0,0.0,0.0,0.0,0,0,100,30.13,29.96,0,0,0,0.00
2014-12-6,0.0,0.0,0.0,0.0,0.0,0.0,0,0,100,30.37,30.12,0,0,0,0.00
2014-12-7,0.0,0.0,0.0,0.0,0.0,0.0,0,0,100,30.39,30.23,0,0,0,0.00
2014-12-8,0.0,0.0,0.0,0.0,0.0,0.0,0,0,100,30.32,30.24,0,0,0,0.00
2014-12-9,0.0,0.0,0.0,0.0,0.0,0.0,0,0,100,30.34,30.21,0,0,0,0.00
2014-12-10,0.0,0.0,0.0,0.0,0.0,0.0,0,0,100,30.27,30.13,0,0,0,0.00
2014-12-11,0.0,0.0,0.0,0.0,0.0,0.0,0,0,100,30.20,30.12,0,0,0,0.00
2014-12-12,0.0,0.0,0.0,0.0,0.0,0.0,0,0,100,30.25,30.17,0,0,0,0.00
2014-12-13,0.0,0.0,0.0,0.0,0.0,0.0,0,0,100,30.22,30.05,0,0,0,0.00
2014-12-14,0.0,0.0,0.0,0.0,0.0,0.0,0,0,100,30.05,29.76,0,0,0,0.00
2014-12-15,0.0,0.0,0.0,0.0,0.0,0.0,0,0,100,30.11,29.75,0,0,0,0.00
2014-12-16,0.0,0.0,0.0,0.0,0.0,0.0,0,0,100,30.32,30.10,0,0,0,0.00
2014-12-17,0.0,0.0,0.0,0.0,0.0,0.0,0,0,100,30.27,30.25,0,0,0,0.00
2015-1-2,0.0,0.0,0.0,0.0,0.0,0.0,0,0,100,30.09,29.88,0,0,0,0.00